Enter the Airport ICAO Code

Search by Airport or City

Current Weather

LFMN | Nice Côte d'Azur Airport

Nice, Provence-Alpes-Côte d'Azur, France

Last Update 10 Minutes Ago

Clear Sky

Temperature of 25 ºC

Moderate Winds from East

Temperature

25 ºC

Dew Point Temperature

21 ºC

Relative Humidity

78.61 %

Wind Direction

East (110º, Without Significant Variations)

Wind Velocity

20 km/h (11 kt)

Gusts

None

Visibility

No Significant Reductions

Sea Level Pressure

1017 hPa (Hectopascals)

Layers of Clouds

None

METAR LFMN 191230Z 11011KT CAVOK 25/21 Q1017 NOSIG

Weather Forecast

LFMN | Nice Côte d'Azur Airport

Nice, Provence-Alpes-Côte d'Azur, France

Forecast valid for the next 26 Hours

From now on it is expected:

Clear Sky

Moderate Winds from East

In 3 to 5 hours it is expected the begining of:

Light Winds from Variable Directions

In 10 hours it is expected the begining of 7 hours with intermittent periods of:

Mostly Cloudy Sky

In 18 to 21 hours it is expected the begining of:

Moderate Winds from East

In 21 hours it is expected the begining of 4 hours with intermittent periods of:

Sky with Few Clouds

In 21 hours it is expected the begining of 4 hours with intermittent periods of:

Rain

Maximum Temperature

No Data

Minimum Temperature

No Data

TAF LFMN 190839Z 1909/2015 10010KT CAVOK BECMG 1916/1918 VRB04KT PROB40 TEMPO 1923/2006 BKN010 BECMG 2007/2010 10012KT PROB40 TEMPO 2010/2014 FEW080TCU PROB30 TEMPO 2010/2014 SHRA FEW070CB